sensor_id;sensor_type;location;lat;lon;timestamp;pressure;altitude;pressure_sealevel;temperature;humidity
61676;BME280;47574;52.090;5.244;2023-04-21T00:00:12;101591.0;;;15.17;52.68
61676;BME280;47574;52.090;5.244;2023-04-21T00:03:25;101588.0;;;15.02;53.32
61676;BME280;47574;52.090;5.244;2023-04-21T00:05:01;101599.0;;;14.98;53.28
61676;BME280;47574;52.090;5.244;2023-04-21T00:06:37;101596.0;;;15.07;53.61
61676;BME280;47574;52.090;5.244;2023-04-21T00:09:50;101592.0;;;15.09;53.82
61676;BME280;47574;52.090;5.244;2023-04-21T00:11:27;101587.0;;;15.05;53.52
61676;BME280;47574;52.090;5.244;2023-04-21T00:13:03;101578.0;;;15.04;53.92
61676;BME280;47574;52.090;5.244;2023-04-21T00:16:15;101567.0;;;15.1;53.88
61676;BME280;47574;52.090;5.244;2023-04-21T00:17:51;101553.0;;;15.0;54.16
61676;BME280;47574;52.090;5.244;2023-04-21T00:19:27;101555.0;;;15.13;54.14
61676;BME280;47574;52.090;5.244;2023-04-21T00:21:04;101559.0;;;15.0;54.53
61676;BME280;47574;52.090;5.244;2023-04-21T00:24:16;101555.0;;;14.94;54.63
61676;BME280;47574;52.090;5.244;2023-04-21T00:25:52;101555.0;;;15.04;54.15
61676;BME280;47574;52.090;5.244;2023-04-21T00:27:28;101552.0;;;14.71;54.98
61676;BME280;47574;52.090;5.244;2023-04-21T00:30:40;101549.0;;;14.94;55.05
61676;BME280;47574;52.090;5.244;2023-04-21T00:32:16;101553.0;;;15.08;54.32
61676;BME280;47574;52.090;5.244;2023-04-21T00:33:52;101548.0;;;14.94;55.08
61676;BME280;47574;52.090;5.244;2023-04-21T00:37:05;101542.0;;;14.99;54.86
61676;BME280;47574;52.090;5.244;2023-04-21T00:38:41;101538.0;;;14.86;54.99
61676;BME280;47574;52.090;5.244;2023-04-21T00:40:17;101535.0;;;14.88;55.16
61676;BME280;47574;52.090;5.244;2023-04-21T00:43:29;101533.0;;;15.02;54.73
61676;BME280;47574;52.090;5.244;2023-04-21T00:45:06;101530.0;;;14.73;55.3
61676;BME280;47574;52.090;5.244;2023-04-21T00:46:42;101532.0;;;14.9;54.98
61676;BME280;47574;52.090;5.244;2023-04-21T00:48:18;101531.0;;;14.84;55.22
61676;BME280;47574;52.090;5.244;2023-04-21T00:51:33;101533.0;;;14.89;55.15
61676;BME280;47574;52.090;5.244;2023-04-21T00:53:10;101532.0;;;14.87;55.38
61676;BME280;47574;52.090;5.244;2023-04-21T00:54:49;101530.0;;;14.86;55.52
61676;BME280;47574;52.090;5.244;2023-04-21T00:58:05;101513.0;;;14.66;55.38
61676;BME280;47574;52.090;5.244;2023-04-21T00:59:41;101517.0;;;14.89;55.24
61676;BME280;47574;52.090;5.244;2023-04-21T01:01:18;101519.0;;;14.82;55.27
61676;BME280;47574;52.090;5.244;2023-04-21T01:02:54;101527.0;;;14.76;55.42
61676;BME280;47574;52.090;5.244;2023-04-21T01:06:07;101524.0;;;14.65;56.13
61676;BME280;47574;52.090;5.244;2023-04-21T01:07:44;101521.0;;;14.79;55.7
61676;BME280;47574;52.090;5.244;2023-04-21T01:09:21;101512.0;;;14.7;55.68
61676;BME280;47574;52.090;5.244;2023-04-21T01:12:41;101513.0;;;14.75;55.65
61676;BME280;47574;52.090;5.244;2023-04-21T01:14:17;101510.0;;;14.64;56.29
61676;BME280;47574;52.090;5.244;2023-04-21T01:15:53;101513.0;;;14.82;55.66
61676;BME280;47574;52.090;5.244;2023-04-21T01:17:29;101516.0;;;14.8;56.23
61676;BME280;47574;52.090;5.244;2023-04-21T01:20:41;101512.0;;;14.74;55.96
61676;BME280;47574;52.090;5.244;2023-04-21T01:22:17;101511.0;;;14.93;55.77
61676;BME280;47574;52.090;5.244;2023-04-21T01:23:53;101511.0;;;14.79;56.1
61676;BME280;47574;52.090;5.244;2023-04-21T01:27:08;101506.0;;;14.86;56.09
61676;BME280;47574;52.090;5.244;2023-04-21T01:28:45;101505.0;;;14.73;55.94
61676;BME280;47574;52.090;5.244;2023-04-21T01:30:21;101505.0;;;14.66;56.5
61676;BME280;47574;52.090;5.244;2023-04-21T01:33:33;101498.0;;;14.78;56.31
61676;BME280;47574;52.090;5.244;2023-04-21T01:35:09;101497.0;;;14.77;56.39
61676;BME280;47574;52.090;5.244;2023-04-21T01:36:45;101499.0;;;14.66;57.23
61676;BME280;47574;52.090;5.244;2023-04-21T01:40:00;101500.0;;;14.84;56.4
61676;BME280;47574;52.090;5.244;2023-04-21T01:41:39;101496.0;;;14.9;56.36
61676;BME280;47574;52.090;5.244;2023-04-21T01:43:17;101497.0;;;14.92;56.45
61676;BME280;47574;52.090;5.244;2023-04-21T01:44:55;101494.0;;;14.9;56.47
61676;BME280;47574;52.090;5.244;2023-04-21T01:48:08;101490.0;;;15.0;56.09
61676;BME280;47574;52.090;5.244;2023-04-21T01:49:44;101488.0;;;14.82;56.51
61676;BME280;47574;52.090;5.244;2023-04-21T01:51:21;101481.0;;;14.68;57.07
61676;BME280;47574;52.090;5.244;2023-04-21T01:54:34;101477.0;;;15.04;56.27
61676;BME280;47574;52.090;5.244;2023-04-21T01:56:12;101481.0;;;14.87;56.64
61676;BME280;47574;52.090;5.244;2023-04-21T01:57:48;101478.0;;;14.81;56.76
61676;BME280;47574;52.090;5.244;2023-04-21T01:59:25;101475.0;;;14.82;56.87
61676;BME280;47574;52.090;5.244;2023-04-21T02:02:38;101474.0;;;14.76;57.28
61676;BME280;47574;52.090;5.244;2023-04-21T02:04:14;101472.0;;;14.77;57.25
61676;BME280;47574;52.090;5.244;2023-04-21T02:05:51;101474.0;;;14.93;56.84
61676;BME280;47574;52.090;5.244;2023-04-21T02:09:03;101476.0;;;14.76;57.3
61676;BME280;47574;52.090;5.244;2023-04-21T02:10:39;101473.0;;;14.84;57.06
61676;BME280;47574;52.090;5.244;2023-04-21T02:12:15;101476.0;;;14.79;57.21
61676;BME280;47574;52.090;5.244;2023-04-21T02:15:29;101483.0;;;14.95;56.9
61676;BME280;47574;52.090;5.244;2023-04-21T02:17:05;101476.0;;;14.8;57.06
61676;BME280;47574;52.090;5.244;2023-04-21T02:18:41;101476.0;;;14.73;57.41
61676;BME280;47574;52.090;5.244;2023-04-21T02:20:17;101481.0;;;14.7;57.45
61676;BME280;47574;52.090;5.244;2023-04-21T02:23:29;101486.0;;;14.69;57.34
61676;BME280;47574;52.090;5.244;2023-04-21T02:25:06;101476.0;;;14.67;57.11
61676;BME280;47574;52.090;5.244;2023-04-21T02:26:41;101470.0;;;14.87;56.81
61676;BME280;47574;52.090;5.244;2023-04-21T02:29:54;101473.0;;;14.76;57.08
61676;BME280;47574;52.090;5.244;2023-04-21T02:31:30;101472.0;;;14.8;57.06
61676;BME280;47574;52.090;5.244;2023-04-21T02:33:06;101468.0;;;14.91;56.8
61676;BME280;47574;52.090;5.244;2023-04-21T02:36:18;101465.0;;;14.94;57.09
61676;BME280;47574;52.090;5.244;2023-04-21T02:37:54;101461.0;;;14.8;57.35
61676;BME280;47574;52.090;5.244;2023-04-21T02:39:30;101463.0;;;14.87;57.13
61676;BME280;47574;52.090;5.244;2023-04-21T02:42:43;101466.0;;;14.83;57.32
61676;BME280;47574;52.090;5.244;2023-04-21T02:44:19;101461.0;;;14.75;57.23
61676;BME280;47574;52.090;5.244;2023-04-21T02:45:56;101455.0;;;14.75;57.33
61676;BME280;47574;52.090;5.244;2023-04-21T02:47:32;101456.0;;;14.8;57.52
61676;BME280;47574;52.090;5.244;2023-04-21T02:50:45;101464.0;;;14.7;57.6
61676;BME280;47574;52.090;5.244;2023-04-21T02:52:22;101457.0;;;14.68;57.75
61676;BME280;47574;52.090;5.244;2023-04-21T02:53:58;101453.0;;;14.57;58.21
61676;BME280;47574;52.090;5.244;2023-04-21T02:57:10;101447.0;;;14.84;57.64
61676;BME280;47574;52.090;5.244;2023-04-21T02:58:46;101448.0;;;14.77;57.41
61676;BME280;47574;52.090;5.244;2023-04-21T03:00:22;101447.0;;;14.7;57.94
61676;BME280;47574;52.090;5.244;2023-04-21T03:03:34;101448.0;;;14.61;58.08
61676;BME280;47574;52.090;5.244;2023-04-21T03:05:11;101445.0;;;14.58;58.26
61676;BME280;47574;52.090;5.244;2023-04-21T03:06:47;101442.0;;;14.94;57.42
61676;BME280;47574;52.090;5.244;2023-04-21T03:08:23;101443.0;;;14.77;57.45
61676;BME280;47574;52.090;5.244;2023-04-21T03:11:36;101446.0;;;14.66;57.82
61676;BME280;47574;52.090;5.244;2023-04-21T03:13:12;101447.0;;;14.78;57.67
61676;BME280;47574;52.090;5.244;2023-04-21T03:14:48;101452.0;;;14.79;57.66
61676;BME280;47574;52.090;5.244;2023-04-21T03:18:01;101457.0;;;14.71;58.03
61676;BME280;47574;52.090;5.244;2023-04-21T03:19:37;101456.0;;;14.74;57.63
61676;BME280;47574;52.090;5.244;2023-04-21T03:21:13;101446.0;;;14.68;57.94
61676;BME280;47574;52.090;5.244;2023-04-21T03:24:28;101447.0;;;14.62;58.23
61676;BME280;47574;52.090;5.244;2023-04-21T03:26:06;101455.0;;;14.63;58.18
61676;BME280;47574;52.090;5.244;2023-04-21T03:27:42;101441.0;;;14.92;57.57
61676;BME280;47574;52.090;5.244;2023-04-21T03:29:19;101441.0;;;14.75;58.11
61676;BME280;47574;52.090;5.244;2023-04-21T03:32:31;101443.0;;;14.65;58.71
61676;BME280;47574;52.090;5.244;2023-04-21T03:34:07;101430.0;;;14.75;58.12
61676;BME280;47574;52.090;5.244;2023-04-21T03:35:43;101443.0;;;14.59;58.55
61676;BME280;47574;52.090;5.244;2023-04-21T03:38:55;101435.0;;;14.81;57.96
61676;BME280;47574;52.090;5.244;2023-04-21T03:40:32;101432.0;;;14.82;57.84
61676;BME280;47574;52.090;5.244;2023-04-21T03:42:08;101428.0;;;14.64;58.36
61676;BME280;47574;52.090;5.244;2023-04-21T03:45:19;101426.0;;;14.74;57.87
61676;BME280;47574;52.090;5.244;2023-04-21T03:46:55;101421.0;;;14.8;57.89
61676;BME280;47574;52.090;5.244;2023-04-21T03:48:31;101415.0;;;14.73;58.02
61676;BME280;47574;52.090;5.244;2023-04-21T03:51:43;101412.0;;;14.84;57.87
61676;BME280;47574;52.090;5.244;2023-04-21T03:53:20;101421.0;;;14.8;57.58
61676;BME280;47574;52.090;5.244;2023-04-21T03:54:56;101417.0;;;14.83;57.67
61676;BME280;47574;52.090;5.244;2023-04-21T03:56:32;101415.0;;;14.85;57.7
61676;BME280;47574;52.090;5.244;2023-04-21T03:59:44;101410.0;;;14.98;57.25
61676;BME280;47574;52.090;5.244;2023-04-21T04:01:20;101411.0;;;14.9;57.68
61676;BME280;47574;52.090;5.244;2023-04-21T04:02:56;101413.0;;;14.74;58.02
61676;BME280;47574;52.090;5.244;2023-04-21T04:06:09;101416.0;;;14.67;58.2
61676;BME280;47574;52.090;5.244;2023-04-21T04:07:45;101408.0;;;14.54;58.45
61676;BME280;47574;52.090;5.244;2023-04-21T04:09:20;101407.0;;;14.66;58.07
61676;BME280;47574;52.090;5.244;2023-04-21T04:12:32;101406.0;;;14.46;58.55
61676;BME280;47574;52.090;5.244;2023-04-21T04:14:08;101408.0;;;14.62;58.41
61676;BME280;47574;52.090;5.244;2023-04-21T04:15:44;101401.0;;;14.8;58.08
61676;BME280;47574;52.090;5.244;2023-04-21T04:18:57;101407.0;;;14.66;58.45
61676;BME280;47574;52.090;5.244;2023-04-21T04:20:33;101396.0;;;14.79;57.88
61676;BME280;47574;52.090;5.244;2023-04-21T04:22:09;101400.0;;;14.68;57.96
61676;BME280;47574;52.090;5.244;2023-04-21T04:23:45;101406.0;;;14.79;58.0
61676;BME280;47574;52.090;5.244;2023-04-21T04:26:57;101400.0;;;14.86;57.86
61676;BME280;47574;52.090;5.244;2023-04-21T04:28:34;101396.0;;;14.72;57.89
61676;BME280;47574;52.090;5.244;2023-04-21T04:30:11;101397.0;;;14.75;57.87
61676;BME280;47574;52.090;5.244;2023-04-21T04:35:00;101394.0;;;14.76;57.97
61676;BME280;47574;52.090;5.244;2023-04-21T04:36:36;101409.0;;;14.65;58.48
61676;BME280;47574;52.090;5.244;2023-04-21T04:39:52;101406.0;;;14.68;58.28
61676;BME280;47574;52.090;5.244;2023-04-21T04:41:28;101405.0;;;14.79;58.16
61676;BME280;47574;52.090;5.244;2023-04-21T04:43:05;101407.0;;;14.67;58.34
61676;BME280;47574;52.090;5.244;2023-04-21T04:44:41;101410.0;;;14.86;57.92
61676;BME280;47574;52.090;5.244;2023-04-21T04:47:53;101405.0;;;14.77;58.42
61676;BME280;47574;52.090;5.244;2023-04-21T04:49:29;101406.0;;;14.78;58.15
61676;BME280;47574;52.090;5.244;2023-04-21T04:51:05;101401.0;;;14.75;58.15
61676;BME280;47574;52.090;5.244;2023-04-21T04:54:18;101405.0;;;14.81;57.81
61676;BME280;47574;52.090;5.244;2023-04-21T04:55:54;101406.0;;;14.76;58.32
61676;BME280;47574;52.090;5.244;2023-04-21T04:57:30;101405.0;;;14.89;57.79
61676;BME280;47574;52.090;5.244;2023-04-21T05:00:42;101409.0;;;14.85;57.86
61676;BME280;47574;52.090;5.244;2023-04-21T05:02:18;101409.0;;;14.75;58.26
61676;BME280;47574;52.090;5.244;2023-04-21T05:03:55;101412.0;;;14.96;57.82
61676;BME280;47574;52.090;5.244;2023-04-21T05:05:31;101406.0;;;14.83;57.97
61676;BME280;47574;52.090;5.244;2023-04-21T05:08:44;101408.0;;;14.89;57.82
61676;BME280;47574;52.090;5.244;2023-04-21T05:10:20;101411.0;;;14.85;57.94
61676;BME280;47574;52.090;5.244;2023-04-21T05:11:56;101417.0;;;14.87;57.87
61676;BME280;47574;52.090;5.244;2023-04-21T05:15:08;101417.0;;;14.87;58.0
61676;BME280;47574;52.090;5.244;2023-04-21T05:16:45;101422.0;;;14.88;57.78
61676;BME280;47574;52.090;5.244;2023-04-21T05:18:22;101413.0;;;14.79;58.22
61676;BME280;47574;52.090;5.244;2023-04-21T05:21:34;101419.0;;;14.86;57.95
61676;BME280;47574;52.090;5.244;2023-04-21T05:23:10;101420.0;;;14.63;58.4
61676;BME280;47574;52.090;5.244;2023-04-21T05:24:46;101424.0;;;14.93;57.73
61676;BME280;47574;52.090;5.244;2023-04-21T05:27:59;101423.0;;;14.69;58.2
61676;BME280;47574;52.090;5.244;2023-04-21T05:29:35;101421.0;;;14.73;58.13
61676;BME280;47574;52.090;5.244;2023-04-21T05:31:12;101428.0;;;14.8;58.16
61676;BME280;47574;52.090;5.244;2023-04-21T05:32:47;101420.0;;;14.72;58.18
61676;BME280;47574;52.090;5.244;2023-04-21T05:35:59;101430.0;;;14.9;57.9
61676;BME280;47574;52.090;5.244;2023-04-21T05:37:35;101431.0;;;14.87;57.97
61676;BME280;47574;52.090;5.244;2023-04-21T05:39:11;101432.0;;;15.0;57.71
61676;BME280;47574;52.090;5.244;2023-04-21T05:42:28;101425.0;;;15.01;57.88
61676;BME280;47574;52.090;5.244;2023-04-21T05:44:05;101428.0;;;14.83;58.16
61676;BME280;47574;52.090;5.244;2023-04-21T05:45:41;101430.0;;;14.96;58.02
61676;BME280;47574;52.090;5.244;2023-04-21T05:48:53;101432.0;;;14.89;58.15
61676;BME280;47574;52.090;5.244;2023-04-21T05:50:29;101438.0;;;14.91;58.16
61676;BME280;47574;52.090;5.244;2023-04-21T05:52:08;101437.0;;;14.87;58.27
61676;BME280;47574;52.090;5.244;2023-04-21T05:53:45;101446.0;;;15.0;58.05
61676;BME280;47574;52.090;5.244;2023-04-21T05:56:57;101456.0;;;15.07;58.06
61676;BME280;47574;52.090;5.244;2023-04-21T05:58:33;101452.0;;;15.15;57.8
61676;BME280;47574;52.090;5.244;2023-04-21T06:00:10;101453.0;;;15.03;58.19
61676;BME280;47574;52.090;5.244;2023-04-21T06:03:22;101450.0;;;15.03;58.16
61676;BME280;47574;52.090;5.244;2023-04-21T06:04:58;101449.0;;;15.03;58.24
61676;BME280;47574;52.090;5.244;2023-04-21T06:06:34;101451.0;;;15.13;58.03
61676;BME280;47574;52.090;5.244;2023-04-21T06:09:48;101448.0;;;15.23;57.98
61676;BME280;47574;52.090;5.244;2023-04-21T06:11:25;101453.0;;;15.19;58.11
61676;BME280;47574;52.090;5.244;2023-04-21T06:13:01;101448.0;;;15.06;58.7
61676;BME280;47574;52.090;5.244;2023-04-21T06:14:37;101449.0;;;15.16;58.15
61676;BME280;47574;52.090;5.244;2023-04-21T06:17:52;101449.0;;;15.23;58.02
61676;BME280;47574;52.090;5.244;2023-04-21T06:19:27;101443.0;;;15.29;57.8
61676;BME280;47574;52.090;5.244;2023-04-21T06:21:04;101438.0;;;15.19;58.16
61676;BME280;47574;52.090;5.244;2023-04-21T06:24:16;101438.0;;;15.22;58.36
61676;BME280;47574;52.090;5.244;2023-04-21T06:25:59;101434.0;;;15.26;58.25
61676;BME280;47574;52.090;5.244;2023-04-21T06:27:38;101436.0;;;15.27;58.1
61676;BME280;47574;52.090;5.244;2023-04-21T06:29:14;101441.0;;;15.33;58.21
61676;BME280;47574;52.090;5.244;2023-04-21T06:32:26;101444.0;;;15.26;58.41
61676;BME280;47574;52.090;5.244;2023-04-21T06:34:03;101448.0;;;15.34;58.55
61676;BME280;47574;52.090;5.244;2023-04-21T06:35:39;101441.0;;;15.31;58.24
61676;BME280;47574;52.090;5.244;2023-04-21T06:38:51;101438.0;;;15.34;58.13
61676;BME280;47574;52.090;5.244;2023-04-21T06:40:27;101442.0;;;15.23;58.54
61676;BME280;47574;52.090;5.244;2023-04-21T06:42:04;101440.0;;;15.22;58.73
61676;BME280;47574;52.090;5.244;2023-04-21T06:45:16;101444.0;;;15.52;58.0
61676;BME280;47574;52.090;5.244;2023-04-21T06:46:53;101443.0;;;15.45;58.06
61676;BME280;47574;52.090;5.244;2023-04-21T06:48:29;101438.0;;;15.39;58.31
61676;BME280;47574;52.090;5.244;2023-04-21T06:51:42;101439.0;;;15.42;58.21
61676;BME280;47574;52.090;5.244;2023-04-21T06:53:18;101442.0;;;15.64;57.68
61676;BME280;47574;52.090;5.244;2023-04-21T06:54:54;101441.0;;;15.65;57.92
61676;BME280;47574;52.090;5.244;2023-04-21T06:56:30;101439.0;;;15.62;58.04
61676;BME280;47574;52.090;5.244;2023-04-21T06:59:43;101437.0;;;15.43;58.74
61676;BME280;47574;52.090;5.244;2023-04-21T07:01:19;101437.0;;;15.6;58.39
61676;BME280;47574;52.090;5.244;2023-04-21T07:02:55;101436.0;;;15.63;58.04
61676;BME280;47574;52.090;5.244;2023-04-21T07:06:07;101427.0;;;15.66;58.45
61676;BME280;47574;52.090;5.244;2023-04-21T07:07:43;101432.0;;;15.75;58.43
61676;BME280;47574;52.090;5.244;2023-04-21T07:09:19;101430.0;;;15.62;58.77
61676;BME280;47574;52.090;5.244;2023-04-21T07:12:32;101426.0;;;15.72;58.45
61676;BME280;47574;52.090;5.244;2023-04-21T07:14:08;101433.0;;;15.85;58.41
61676;BME280;47574;52.090;5.244;2023-04-21T07:15:44;101431.0;;;15.99;57.95
61676;BME280;47574;52.090;5.244;2023-04-21T07:17:20;101437.0;;;15.9;58.39
61676;BME280;47574;52.090;5.244;2023-04-21T07:20:32;101441.0;;;15.83;58.17
61676;BME280;47574;52.090;5.244;2023-04-21T07:22:08;101438.0;;;15.76;58.05
61676;BME280;47574;52.090;5.244;2023-04-21T07:23:44;101431.0;;;16.02;57.5
61676;BME280;47574;52.090;5.244;2023-04-21T07:26:57;101430.0;;;15.87;57.92
61676;BME280;47574;52.090;5.244;2023-04-21T07:28:33;101430.0;;;15.9;57.91
61676;BME280;47574;52.090;5.244;2023-04-21T07:30:10;101431.0;;;15.98;58.0
61676;BME280;47574;52.090;5.244;2023-04-21T07:33:22;101435.0;;;16.07;58.2
61676;BME280;47574;52.090;5.244;2023-04-21T07:34:58;101436.0;;;16.07;57.89
61676;BME280;47574;52.090;5.244;2023-04-21T07:36:35;101430.0;;;16.2;57.53
61676;BME280;47574;52.090;5.244;2023-04-21T07:39:47;101430.0;;;16.32;57.87
61676;BME280;47574;52.090;5.244;2023-04-21T07:41:23;101436.0;;;16.37;57.61
61676;BME280;47574;52.090;5.244;2023-04-21T07:42:59;101433.0;;;16.38;57.01
61676;BME280;47574;52.090;5.244;2023-04-21T07:44:35;101430.0;;;16.5;56.41
61676;BME280;47574;52.090;5.244;2023-04-21T07:47:47;101432.0;;;16.5;56.25
61676;BME280;47574;52.090;5.244;2023-04-21T07:49:24;101435.0;;;16.56;56.33
61676;BME280;47574;52.090;5.244;2023-04-21T07:51:01;101442.0;;;16.43;56.9
61676;BME280;47574;52.090;5.244;2023-04-21T07:54:13;101441.0;;;16.68;56.47
61676;BME280;47574;52.090;5.244;2023-04-21T07:55:49;101443.0;;;16.56;57.03
61676;BME280;47574;52.090;5.244;2023-04-21T07:57:25;101438.0;;;16.77;55.94
61676;BME280;47574;52.090;5.244;2023-04-21T08:00:40;101439.0;;;16.84;55.51
61676;BME280;47574;52.090;5.244;2023-04-21T08:02:18;101434.0;;;16.88;55.3
61676;BME280;47574;52.090;5.244;2023-04-21T08:03:56;101434.0;;;16.86;55.27
61676;BME280;47574;52.090;5.244;2023-04-21T08:05:34;101438.0;;;16.81;55.7
61676;BME280;47574;52.090;5.244;2023-04-21T08:08:49;101434.0;;;16.9;55.28
61676;BME280;47574;52.090;5.244;2023-04-21T08:10:26;101428.0;;;16.93;55.12
61676;BME280;47574;52.090;5.244;2023-04-21T08:12:04;101426.0;;;16.87;55.25
61676;BME280;47574;52.090;5.244;2023-04-21T08:15:20;101422.0;;;16.7;55.95
61676;BME280;47574;52.090;5.244;2023-04-21T08:16:57;101419.0;;;16.79;56.15
61676;BME280;47574;52.090;5.244;2023-04-21T08:18:34;101424.0;;;16.87;55.86
61676;BME280;47574;52.090;5.244;2023-04-21T08:20:12;101420.0;;;16.95;55.67
61676;BME280;47574;52.090;5.244;2023-04-21T08:23:27;101427.0;;;16.82;56.1
61676;BME280;47574;52.090;5.244;2023-04-21T08:25:04;101422.0;;;17.05;56.54
61676;BME280;47574;52.090;5.244;2023-04-21T08:26:42;101419.0;;;17.2;56.25
61676;BME280;47574;52.090;5.244;2023-04-21T08:29:56;101425.0;;;17.28;55.28
61676;BME280;47574;52.090;5.244;2023-04-21T08:31:34;101430.0;;;17.27;55.26
61676;BME280;47574;52.090;5.244;2023-04-21T08:33:10;101426.0;;;17.41;54.88
61676;BME280;47574;52.090;5.244;2023-04-21T08:34:49;101423.0;;;17.45;54.61
61676;BME280;47574;52.090;5.244;2023-04-21T08:38:04;101426.0;;;17.25;54.73
61676;BME280;47574;52.090;5.244;2023-04-21T08:39:42;101432.0;;;17.28;54.85
61676;BME280;47574;52.090;5.244;2023-04-21T08:41:21;101427.0;;;17.39;54.62
61676;BME280;47574;52.090;5.244;2023-04-21T08:44:37;101427.0;;;17.5;54.42
61676;BME280;47574;52.090;5.244;2023-04-21T08:46:13;101418.0;;;17.52;53.44
61676;BME280;47574;52.090;5.244;2023-04-21T08:47:51;101420.0;;;17.57;53.92
61676;BME280;47574;52.090;5.244;2023-04-21T08:49:32;101420.0;;;17.86;53.22
61676;BME280;47574;52.090;5.244;2023-04-21T08:52:46;101424.0;;;17.91;53.04
61676;BME280;47574;52.090;5.244;2023-04-21T08:54:24;101425.0;;;18.06;53.83
61676;BME280;47574;52.090;5.244;2023-04-21T08:56:02;101420.0;;;17.91;52.48
61676;BME280;47574;52.090;5.244;2023-04-21T08:59:18;101417.0;;;17.93;52.09
61676;BME280;47574;52.090;5.244;2023-04-21T09:00:55;101412.0;;;17.91;51.7
61676;BME280;47574;52.090;5.244;2023-04-21T09:02:51;101403.0;;;17.86;51.52
61676;BME280;47574;52.090;5.244;2023-04-21T09:04:28;101405.0;;;17.7;52.05
61676;BME280;47574;52.090;5.244;2023-04-21T09:07:46;101405.0;;;18.11;51.56
61676;BME280;47574;52.090;5.244;2023-04-21T09:09:24;101405.0;;;18.16;50.99
61676;BME280;47574;52.090;5.244;2023-04-21T09:11:03;101410.0;;;18.36;51.14
61676;BME280;47574;52.090;5.244;2023-04-21T09:12:39;101408.0;;;18.56;50.89
61676;BME280;47574;52.090;5.244;2023-04-21T09:15:55;101410.0;;;18.48;50.57
61676;BME280;47574;52.090;5.244;2023-04-21T09:17:33;101409.0;;;18.63;49.85
61676;BME280;47574;52.090;5.244;2023-04-21T09:19:13;101405.0;;;18.61;49.8
61676;BME280;47574;52.090;5.244;2023-04-21T09:21:04;101403.0;;;18.43;49.34
61676;BME280;47574;52.090;5.244;2023-04-21T09:24:21;101405.0;;;18.55;49.23
61676;BME280;47574;52.090;5.244;2023-04-21T09:26:02;101403.0;;;18.66;50.01
61676;BME280;47574;52.090;5.244;2023-04-21T09:27:40;101403.0;;;18.62;50.02
61676;BME280;47574;52.090;5.244;2023-04-21T09:29:21;101402.0;;;18.48;50.18
61676;BME280;47574;52.090;5.244;2023-04-21T09:32:36;101405.0;;;18.63;50.13
61676;BME280;47574;52.090;5.244;2023-04-21T09:34:17;101405.0;;;18.68;50.05
61676;BME280;47574;52.090;5.244;2023-04-21T09:35:55;101407.0;;;18.68;49.68
61676;BME280;47574;52.090;5.244;2023-04-21T09:37:32;101407.0;;;18.66;49.55
61676;BME280;47574;52.090;5.244;2023-04-21T09:40:55;101405.0;;;18.59;49.67
61676;BME280;47574;52.090;5.244;2023-04-21T09:42:32;101407.0;;;18.66;50.11
61676;BME280;47574;52.090;5.244;2023-04-21T09:44:11;101403.0;;;18.72;48.93
61676;BME280;47574;52.090;5.244;2023-04-21T09:47:28;101399.0;;;18.61;49.54
61676;BME280;47574;52.090;5.244;2023-04-21T09:49:06;101397.0;;;18.7;49.45
61676;BME280;47574;52.090;5.244;2023-04-21T09:50:46;101396.0;;;18.7;49.22
61676;BME280;47574;52.090;5.244;2023-04-21T09:52:26;101394.0;;;18.86;49.65
61676;BME280;47574;52.090;5.244;2023-04-21T09:55:55;101391.0;;;18.91;49.47
61676;BME280;47574;52.090;5.244;2023-04-21T09:57:37;101388.0;;;18.59;49.91
61676;BME280;47574;52.090;5.244;2023-04-21T09:59:20;101392.0;;;18.52;50.19
61676;BME280;47574;52.090;5.244;2023-04-21T10:01:02;101390.0;;;18.61;50.28
61676;BME280;47574;52.090;5.244;2023-04-21T10:02:42;101384.0;;;18.86;49.74
61676;BME280;47574;52.090;5.244;2023-04-21T10:06:01;101388.0;;;18.77;49.6
61676;BME280;47574;52.090;5.244;2023-04-21T10:07:38;101394.0;;;18.84;49.5
61676;BME280;47574;52.090;5.244;2023-04-21T10:09:17;101393.0;;;18.77;49.78
61676;BME280;47574;52.090;5.244;2023-04-21T10:12:37;101386.0;;;18.7;50.3
61676;BME280;47574;52.090;5.244;2023-04-21T10:14:13;101392.0;;;18.98;49.44
61676;BME280;47574;52.090;5.244;2023-04-21T10:16:00;101395.0;;;18.93;49.67
61676;BME280;47574;52.090;5.244;2023-04-21T10:17:38;101391.0;;;18.87;49.98
61676;BME280;47574;52.090;5.244;2023-04-21T10:21:05;101385.0;;;18.91;49.56
61676;BME280;47574;52.090;5.244;2023-04-21T10:22:55;101387.0;;;18.91;49.98
61676;BME280;47574;52.090;5.244;2023-04-21T10:24:36;101385.0;;;18.7;49.49
61676;BME280;47574;52.090;5.244;2023-04-21T10:26:17;101382.0;;;19.03;49.07
61676;BME280;47574;52.090;5.244;2023-04-21T10:27:57;101381.0;;;18.78;49.86
61676;BME280;47574;52.090;5.244;2023-04-21T10:31:17;101383.0;;;18.79;49.49
61676;BME280;47574;52.090;5.244;2023-04-21T10:33:02;101373.0;;;18.86;49.36
61676;BME280;47574;52.090;5.244;2023-04-21T10:34:40;101373.0;;;19.02;49.44
61676;BME280;47574;52.090;5.244;2023-04-21T10:36:23;101378.0;;;18.95;49.39
61676;BME280;47574;52.090;5.244;2023-04-21T10:39:43;101377.0;;;19.05;48.33
61676;BME280;47574;52.090;5.244;2023-04-21T10:41:35;101380.0;;;18.97;48.0
61676;BME280;47574;52.090;5.244;2023-04-21T10:43:41;101378.0;;;18.91;47.53
61676;BME280;47574;52.090;5.244;2023-04-21T10:45:24;101373.0;;;18.68;48.32
61676;BME280;47574;52.090;5.244;2023-04-21T10:47:06;101369.0;;;18.75;47.74
61676;BME280;47574;52.090;5.244;2023-04-21T10:48:51;101363.0;;;18.86;49.51
61676;BME280;47574;52.090;5.244;2023-04-21T10:52:08;101367.0;;;19.06;48.33
61676;BME280;47574;52.090;5.244;2023-04-21T10:53:46;101366.0;;;19.16;48.08
61676;BME280;47574;52.090;5.244;2023-04-21T10:55:26;101360.0;;;19.34;47.58
61676;BME280;47574;52.090;5.244;2023-04-21T10:57:05;101358.0;;;19.36;48.25
61676;BME280;47574;52.090;5.244;2023-04-21T11:00:24;101350.0;;;19.43;47.94
61676;BME280;47574;52.090;5.244;2023-04-21T11:02:01;101351.0;;;19.5;47.23
61676;BME280;47574;52.090;5.244;2023-04-21T11:03:40;101345.0;;;19.54;47.65
61676;BME280;47574;52.090;5.244;2023-04-21T11:07:04;101347.0;;;19.43;48.22
61676;BME280;47574;52.090;5.244;2023-04-21T11:08:58;101342.0;;;19.52;47.78